Time;durP1;ratioP1;P1;durP2;ratioP2;P2;SDS_P1;SDS_P2;PMS_P1;PMS_P2;Temp;Humidity;BMP_temperature;BMP_pressure;BME280_temperature;BME280_humidity;BME280_pressure;Samples;Min_cycle;Max_cycle;Signal;HPM_P1;HPM_P2
2022/10/02 00:01:56;;;;;;;5.00;4.60;;;27.60;60.00;;;;;;5143681;27;20481;-66
2022/10/02 00:04:34;;;;;;;4.90;4.40;;;27.60;59.90;;;;;;5143899;28;20472;-67
2022/10/02 00:07:07;;;;;;;4.60;4.20;;;27.50;61.30;;;;;;5143868;27;20449;-67
2022/10/02 00:09:47;;;;;;;5.50;5.00;;;27.40;61.80;;;;;;5142851;27;20441;-67
2022/10/02 00:12:20;;;;;;;5.10;4.70;;;27.40;60.90;;;;;;5144350;27;20459;-67
2022/10/02 00:14:55;;;;;;;5.70;4.57;;;27.30;61.70;;;;;;5119907;27;20634;-67
2022/10/02 00:17:33;;;;;;;4.40;4.10;;;27.30;63.50;;;;;;5145445;27;20478;-67
2022/10/02 00:20:07;;;;;;;4.70;4.30;;;27.20;62.50;;;;;;5147238;27;20477;-67
2022/10/02 00:22:47;;;;;;;5.30;4.80;;;27.20;62.40;;;;;;5148061;27;20522;-66
2022/10/02 00:25:24;;;;;;;4.80;4.40;;;27.20;61.30;;;;;;5147206;27;20456;-67
2022/10/02 00:28:14;;;;;;;4.43;3.93;;;27.20;61.50;;;;;;5147258;27;20441;-67
2022/10/02 00:31:04;;;;;;;4.90;4.37;;;27.10;62.10;;;;;;5147763;27;20443;-67
2022/10/02 00:33:44;;;;;;;4.77;4.30;;;27.00;62.10;;;;;;5148092;27;20517;-67
2022/10/02 00:36:25;;;;;;;4.40;4.00;;;26.90;62.70;;;;;;5147083;27;20480;-67
2022/10/02 00:39:03;;;;;;;5.07;4.67;;;26.90;62.30;;;;;;5147093;27;20448;-67
2022/10/02 00:42:03;;;;;;;4.67;4.27;;;26.90;62.30;;;;;;5146613;27;20448;-67
2022/10/02 00:44:53;;;;;;;4.57;4.27;;;26.90;61.60;;;;;;5118013;27;20446;-67
2022/10/02 00:47:39;;;;;;;4.83;4.40;;;26.80;61.60;;;;;;5136433;27;20483;-67
2022/10/02 00:50:31;;;;;;;5.30;4.80;;;26.80;61.50;;;;;;5146544;27;20517;-67
2022/10/02 00:53:13;;;;;;;5.33;4.77;;;26.70;62.40;;;;;;5147243;27;20531;-67
2022/10/02 00:56:06;;;;;;;5.33;4.90;;;26.60;64.20;;;;;;5146499;27;20445;-67
2022/10/02 00:59:01;;;;;;;4.30;3.90;;;26.50;63.80;;;;;;5133590;27;20439;-67
2022/10/02 01:01:41;;;;;;;4.93;4.53;;;26.40;64.10;;;;;;5147228;27;20440;-67
2022/10/02 01:04:21;;;;;;;4.80;4.40;;;26.30;63.30;;;;;;5147232;27;20511;-67
2022/10/02 01:06:52;;;;;;;4.50;4.10;;;26.30;65.10;;;;;;5147461;27;20469;-67
2022/10/02 01:09:23;;;;;;;4.60;4.20;;;26.20;65.30;;;;;;5146474;27;20477;-67
2022/10/02 01:11:54;;;;;;;5.07;4.67;;;26.20;64.90;;;;;;5146517;27;20452;-67
2022/10/02 01:14:34;;;;;;;4.50;4.10;;;26.10;64.80;;;;;;5146970;27;20468;-67
2022/10/02 01:17:06;;;;;;;5.23;4.73;;;25.90;67.30;;;;;;5146774;27;20474;-67
2022/10/02 01:19:40;;;;;;;5.03;4.50;;;25.80;67.70;;;;;;5133873;27;20452;-68
2022/10/02 01:22:17;;;;;;;4.37;3.97;;;25.60;69.40;;;;;;5118689;27;20459;-67
2022/10/02 01:24:53;;;;;;;4.73;4.33;;;25.50;69.00;;;;;;5132030;27;20489;-66
2022/10/02 01:27:25;;;;;;;5.17;4.70;;;25.40;68.50;;;;;;5132946;27;20454;-67
2022/10/02 01:30:00;;;;;;;4.70;4.30;;;25.40;69.10;;;;;;5143467;27;20484;-70
2022/10/02 01:32:31;;;;;;;5.70;5.30;;;25.30;69.70;;;;;;5135347;27;20479;-67
2022/10/02 01:35:03;;;;;;;4.80;4.40;;;25.10;71.30;;;;;;5126446;27;20456;-67
2022/10/02 01:37:38;;;;;;;4.43;4.03;;;25.00;69.10;;;;;;5141615;27;20507;-68
2022/10/02 01:40:23;;;;;;;4.50;4.10;;;25.00;71.50;;;;;;5145300;27;20455;-67
2022/10/02 01:42:55;;;;;;;5.53;4.70;;;24.90;71.40;;;;;;5131153;27;20498;-68
2022/10/02 01:45:53;;;;;;;5.97;4.83;;;24.80;72.00;;;;;;5136862;27;20488;-68
2022/10/02 01:48:35;;;;;;;5.17;4.70;;;24.70;73.00;;;;;;5137061;27;20525;-69
2022/10/02 01:51:19;;;;;;;5.43;4.93;;;24.50;74.50;;;;;;5146056;27;20451;-69
2022/10/02 01:53:56;;;;;;;5.90;4.37;;;24.30;75.20;;;;;;5129340;27;20486;-66
2022/10/02 01:56:34;;;;;;;4.93;4.53;;;24.20;74.50;;;;;;5129367;27;20480;-68
2022/10/02 01:59:13;;;;;;;4.93;4.53;;;24.00;77.50;;;;;;5129416;27;20454;-67
2022/10/02 02:01:55;;;;;;;5.23;4.73;;;23.80;78.50;;;;;;5122619;27;20515;-66
2022/10/02 02:04:29;;;;;;;6.00;4.97;;;23.60;81.20;;;;;;5143225;27;20500;-66
2022/10/02 02:07:08;;;;;;;5.53;5.03;;;23.40;81.30;;;;;;5136840;27;20516;-66
2022/10/02 02:09:43;;;;;;;5.13;4.63;;;23.20;83.90;;;;;;5121835;27;20981;-67
2022/10/02 02:12:21;;;;;;;5.70;5.10;;;23.10;83.00;;;;;;5145877;27;20509;-67
2022/10/02 02:14:59;;;;;;;5.60;5.00;;;22.90;89.10;;;;;;5115087;27;20461;-68
2022/10/02 02:17:35;;;;;;;5.80;5.27;;;22.70;87.30;;;;;;5114791;28;20449;-67
2022/10/02 02:20:10;;;;;;;5.93;5.37;;;22.60;88.10;;;;;;5119802;27;20487;-66
2022/10/02 02:22:46;;;;;;;6.10;5.07;;;22.40;90.90;;;;;;5137347;27;20460;-66
2022/10/02 02:25:20;;;;;;;6.00;5.47;;;22.40;89.10;;;;;;5144735;27;20445;-66
2022/10/02 02:27:57;;;;;;;5.30;4.80;;;22.30;91.20;;;;;;5131787;27;20573;-66
2022/10/02 02:30:30;;;;;;;6.53;4.93;;;22.20;91.60;;;;;;5144684;27;20456;-66
2022/10/02 02:33:06;;;;;;;5.00;4.43;;;22.10;91.80;;;;;;5129888;27;20503;-65
2022/10/02 02:35:43;;;;;;;8.63;6.17;;;22.00;92.80;;;;;;5124464;27;20457;-66
2022/10/02 02:38:18;;;;;;;6.20;5.57;;;21.90;94.10;;;;;;5129580;27;20502;-67
2022/10/02 02:40:50;;;;;;;8.00;7.20;;;21.80;94.40;;;;;;5119409;27;20527;-66
2022/10/02 02:43:28;;;;;;;6.70;6.00;;;21.60;94.50;;;;;;5133182;27;20510;-66
2022/10/02 02:46:00;;;;;;;6.60;6.00;;;21.50;95.30;;;;;;5124926;27;20465;-67
2022/10/02 02:48:35;;;;;;;9.70;8.00;;;21.50;95.40;;;;;;5139577;27;20449;-67
2022/10/02 02:51:12;;;;;;;7.90;6.60;;;21.40;95.20;;;;;;5112995;27;20539;-66
2022/10/02 02:53:49;;;;;;;6.53;5.90;;;21.40;95.70;;;;;;5144946;27;20791;-66
2022/10/02 02:56:21;;;;;;;7.30;6.47;;;21.40;96.10;;;;;;5135013;27;20532;-66
2022/10/02 02:58:58;;;;;;;7.87;6.13;;;21.30;96.50;;;;;;5127591;27;20428;-66
2022/10/02 03:01:29;;;;;;;8.17;6.70;;;21.20;99.20;;;;;;5137182;27;20458;-67
2022/10/02 03:04:00;;;;;;;7.37;6.57;;;21.00;99.90;;;;;;5123700;27;20572;-67
2022/10/02 03:06:36;;;;;;;8.07;6.37;;;20.90;99.90;;;;;;5119643;27;20576;-65
2022/10/02 03:09:11;;;;;;;7.30;6.67;;;20.80;99.90;;;;;;5132336;27;20517;-66
2022/10/02 03:11:52;;;;;;;8.07;6.57;;;20.70;99.90;;;;;;5126983;27;20475;-66
2022/10/02 03:15:01;;;;;;;9.53;6.20;;;20.50;99.90;;;;;;5144707;27;20449;-66
2022/10/02 03:17:44;;;;;;;8.27;6.43;;;20.40;99.90;;;;;;5101523;27;20450;-68
2022/10/02 03:20:21;;;;;;;7.40;6.70;;;20.40;99.90;;;;;;5130219;27;20453;-66
2022/10/02 03:23:01;;;;;;;6.97;6.07;;;20.30;99.90;;;;;;5131359;27;20461;-67
2022/10/02 03:25:37;;;;;;;7.10;6.40;;;20.30;99.90;;;;;;5127853;27;20493;-67
2022/10/02 03:28:12;;;;;;;7.90;6.80;;;20.20;99.90;;;;;;5144430;27;20529;-67
2022/10/02 03:30:46;;;;;;;8.03;6.80;;;20.20;99.90;;;;;;5126823;27;20450;-67
2022/10/02 03:33:18;;;;;;;6.60;5.90;;;20.20;99.90;;;;;;5144670;27;20600;-68
2022/10/02 03:35:49;;;;;;;7.63;6.50;;;20.10;99.90;;;;;;5133976;27;20449;-68
2022/10/02 03:38:22;;;;;;;6.87;6.03;;;20.00;99.90;;;;;;5126182;28;20461;-67
2022/10/02 03:40:56;;;;;;;8.27;6.67;;;19.90;99.90;;;;;;5130442;27;20454;-68
2022/10/02 03:43:30;;;;;;;7.83;6.67;;;19.90;99.90;;;;;;5123311;27;21146;-66
2022/10/02 03:46:02;;;;;;;8.30;7.50;;;19.80;99.90;;;;;;5143817;27;20457;-68
2022/10/02 03:48:33;;;;;;;7.20;6.47;;;19.70;99.90;;;;;;5144358;27;20435;-67
2022/10/02 03:51:04;;;;;;;8.43;6.47;;;19.60;99.90;;;;;;5143900;27;20453;-67
2022/10/02 03:53:35;;;;;;;8.47;6.60;;;19.60;99.90;;;;;;5121797;27;20456;-67
2022/10/02 03:56:09;;;;;;;7.93;7.13;;;19.60;99.90;;;;;;5148320;27;20817;-66
2022/10/02 03:58:45;;;;;;;6.70;5.80;;;19.50;99.90;;;;;;5146886;27;20470;-67
2022/10/02 04:01:23;;;;;;;7.40;6.70;;;19.40;99.90;;;;;;5132364;27;20490;-66
2022/10/02 04:04:00;;;;;;;7.50;6.90;;;19.40;99.90;;;;;;5147596;27;20946;-67
2022/10/02 04:06:42;;;;;;;8.80;7.30;;;19.30;99.90;;;;;;5148151;27;20427;-67
2022/10/02 04:09:19;;;;;;;8.03;7.20;;;19.30;99.90;;;;;;5142306;27;20478;-67
2022/10/02 04:11:55;;;;;;;7.40;6.80;;;19.20;99.90;;;;;;5147187;27;20468;-67
2022/10/02 04:14:36;;;;;;;7.97;7.17;;;19.20;99.90;;;;;;5147212;27;20470;-66
2022/10/02 04:17:14;;;;;;;8.87;7.37;;;19.10;99.90;;;;;;5143729;27;20411;-69
2022/10/02 04:19:49;;;;;;;8.83;7.70;;;19.10;99.90;;;;;;5115937;27;20501;-67
2022/10/02 04:22:28;;;;;;;9.70;8.23;;;19.10;99.90;;;;;;5141248;27;20418;-70
2022/10/02 04:25:05;;;;;;;8.80;7.50;;;19.10;99.90;;;;;;5130434;27;20494;-68
2022/10/02 04:27:40;;;;;;;10.20;8.27;;;19.00;99.90;;;;;;5119093;27;20446;-68
2022/10/02 04:30:14;;;;;;;8.63;7.87;;;18.90;99.90;;;;;;5147757;27;20505;-67
2022/10/02 04:32:48;;;;;;;8.97;7.97;;;18.90;99.90;;;;;;5147570;27;20416;-68
2022/10/02 04:35:24;;;;;;;8.90;8.00;;;18.90;99.90;;;;;;5147405;27;20415;-67
2022/10/02 04:38:29;;;;;;;8.20;7.40;;;18.70;99.90;;;;;;5147651;27;20423;-69
2022/10/02 04:41:18;;;;;;;8.23;7.30;;;18.60;99.90;;;;;;5121003;27;20549;-68
2022/10/02 04:44:00;;;;;;;12.47;7.47;;;18.60;99.90;;;;;;5142960;27;20444;-67
2022/10/02 04:46:59;;;;;;;9.17;7.57;;;18.50;99.90;;;;;;5130898;27;20529;-68
2022/10/02 04:49:53;;;;;;;8.90;8.00;;;18.40;99.90;;;;;;5142701;27;20435;-67
2022/10/02 04:52:40;;;;;;;9.27;7.50;;;18.40;99.90;;;;;;5124405;27;20449;-67
2022/10/02 04:55:34;;;;;;;11.50;8.53;;;18.40;99.90;;;;;;5143353;27;20471;-67
2022/10/02 04:58:36;;;;;;;8.90;8.00;;;18.40;99.90;;;;;;5135522;27;20435;-66
2022/10/02 05:01:21;;;;;;;9.80;8.80;;;18.30;99.90;;;;;;5126597;27;20432;-66
2022/10/02 05:04:23;;;;;;;8.53;7.73;;;18.20;99.90;;;;;;5124369;27;20431;-66
2022/10/02 05:07:10;;;;;;;9.50;8.13;;;18.20;99.90;;;;;;5135476;27;20469;-66
2022/10/02 05:09:54;;;;;;;8.70;7.73;;;18.10;99.90;;;;;;5117547;27;20431;-66
2022/10/02 05:12:50;;;;;;;9.03;8.03;;;18.10;99.90;;;;;;5134239;27;20446;-66
2022/10/02 05:15:33;;;;;;;9.47;8.30;;;18.10;99.90;;;;;;5140310;27;20514;-67
2022/10/02 05:18:26;;;;;;;8.60;7.63;;;18.10;99.90;;;;;;5118603;27;20444;-66
2022/10/02 05:21:14;;;;;;;8.93;8.07;;;18.10;99.90;;;;;;5132134;27;20450;-65
2022/10/02 05:24:01;;;;;;;10.10;8.33;;;18.10;99.90;;;;;;5138063;27;20458;-66
2022/10/02 05:27:05;;;;;;;8.63;6.90;;;18.10;99.90;;;;;;5137964;27;20875;-66
2022/10/02 05:29:52;;;;;;;9.43;7.30;;;18.00;99.90;;;;;;5115000;27;20531;-66
2022/10/02 05:32:50;;;;;;;8.30;6.63;;;18.00;99.90;;;;;;5119371;27;20462;-65
2022/10/02 05:35:32;;;;;;;9.30;7.63;;;18.00;99.90;;;;;;5124843;27;20435;-66
2022/10/02 05:38:16;;;;;;;8.60;7.70;;;18.00;99.90;;;;;;5146622;27;20588;-65
2022/10/02 05:40:57;;;;;;;9.10;7.33;;;17.90;99.90;;;;;;5138036;27;20461;-66
2022/10/02 05:43:36;;;;;;;7.73;6.97;;;18.00;99.90;;;;;;5115103;27;20454;-65
2022/10/02 05:46:13;;;;;;;7.93;7.13;;;18.00;99.90;;;;;;5129777;27;20542;-66
2022/10/02 05:48:47;;;;;;;13.33;7.83;;;18.00;99.90;;;;;;5136842;27;20458;-66
2022/10/02 05:51:26;;;;;;;7.70;6.90;;;18.00;99.90;;;;;;5136878;27;20501;-65
2022/10/02 05:54:04;;;;;;;10.37;7.63;;;17.90;99.90;;;;;;5109895;27;20850;-66
2022/10/02 05:56:40;;;;;;;8.27;6.53;;;17.90;99.90;;;;;;5110926;27;20932;-66
2022/10/02 05:59:18;;;;;;;10.10;7.37;;;17.90;99.90;;;;;;5142040;27;20435;-66
2022/10/02 06:01:49;;;;;;;9.33;6.50;;;17.90;99.90;;;;;;5143146;27;20449;-66
2022/10/02 06:04:27;;;;;;;7.97;7.17;;;17.80;99.90;;;;;;5132364;27;21166;-66
2022/10/02 06:07:05;;;;;;;11.30;7.50;;;17.80;99.90;;;;;;5133847;27;20431;-66
2022/10/02 06:09:42;;;;;;;9.30;7.30;;;17.80;99.90;;;;;;5122756;27;20448;-66
2022/10/02 06:12:18;;;;;;;10.50;8.07;;;17.70;99.90;;;;;;5121918;27;20571;-66
2022/10/02 06:14:53;;;;;;;9.33;7.63;;;17.70;99.90;;;;;;5116447;27;20502;-65
2022/10/02 06:17:29;;;;;;;7.97;7.17;;;17.60;99.90;;;;;;5115004;27;20435;-65
2022/10/02 06:20:05;;;;;;;9.17;6.90;;;17.60;99.90;;;;;;5138575;27;20533;-66
2022/10/02 06:22:42;;;;;;;8.43;6.73;;;17.60;99.90;;;;;;5131554;27;20518;-66
2022/10/02 06:25:20;;;;;;;8.77;7.90;;;17.50;99.90;;;;;;5124858;27;20604;-66
2022/10/02 06:27:58;;;;;;;7.30;6.60;;;17.50;99.90;;;;;;5131568;27;20423;-66
2022/10/02 06:30:31;;;;;;;8.53;7.27;;;17.40;99.90;;;;;;5140511;27;20486;-66
2022/10/02 06:33:10;;;;;;;7.23;6.53;;;17.40;99.90;;;;;;5142593;27;20508;-66
2022/10/02 06:35:54;;;;;;;10.10;7.90;;;17.40;99.90;;;;;;5145087;27;20427;-66
2022/10/02 06:38:38;;;;;;;8.50;6.90;;;17.30;99.90;;;;;;5145305;27;20464;-66
2022/10/02 06:41:19;;;;;;;9.00;7.40;;;17.30;99.90;;;;;;5144779;27;20449;-66
2022/10/02 06:44:06;;;;;;;7.90;6.83;;;17.30;99.90;;;;;;5130644;27;20416;-66
2022/10/02 06:46:45;;;;;;;8.60;7.33;;;17.30;99.90;;;;;;5143968;27;20502;-66
2022/10/02 06:49:29;;;;;;;8.50;7.23;;;17.30;99.90;;;;;;5116277;27;20575;-66
2022/10/02 06:52:09;;;;;;;9.27;7.60;;;17.30;99.90;;;;;;5144938;27;20503;-66
2022/10/02 06:54:54;;;;;;;10.50;7.70;;;17.30;99.90;;;;;;5134903;27;20546;-66
2022/10/02 06:57:47;;;;;;;9.70;8.17;;;17.20;99.90;;;;;;5138325;27;20427;-65
2022/10/02 07:00:21;;;;;;;9.07;7.97;;;17.20;99.90;;;;;;5128999;27;20503;-66
2022/10/02 07:03:27;;;;;;;10.30;8.33;;;17.10;99.90;;;;;;5138167;27;20533;-66
2022/10/02 07:06:28;;;;;;;11.80;8.53;;;17.10;99.90;;;;;;5125613;27;20496;-65
2022/10/02 07:09:39;;;;;;;11.07;8.30;;;17.10;99.90;;;;;;5112322;27;20424;-65
2022/10/02 07:12:23;;;;;;;8.73;7.63;;;17.10;99.90;;;;;;5138964;27;20495;-65
2022/10/02 07:15:18;;;;;;;10.80;8.50;;;17.10;99.90;;;;;;5136914;27;20431;-66
2022/10/02 07:18:01;;;;;;;10.07;8.17;;;17.00;99.90;;;;;;5114499;28;20507;-66
2022/10/02 07:20:40;;;;;;;12.80;8.97;;;17.00;99.90;;;;;;5140557;27;20448;-65
2022/10/02 07:23:26;;;;;;;9.53;8.53;;;17.00;99.90;;;;;;5136251;27;20448;-66
2022/10/02 07:26:09;;;;;;;10.43;8.50;;;16.90;99.90;;;;;;5117960;27;20965;-65
2022/10/02 07:28:42;;;;;;;10.40;9.00;;;16.90;99.90;;;;;;5129307;27;20437;-66
2022/10/02 07:31:23;;;;;;;9.70;8.43;;;16.90;99.90;;;;;;5124496;27;20466;-66
2022/10/02 07:34:12;;;;;;;13.47;9.87;;;16.80;99.90;;;;;;5139521;27;20479;-65
2022/10/02 07:36:53;;;;;;;9.83;8.83;;;16.80;99.90;;;;;;5119359;27;20471;-66
2022/10/02 07:39:43;;;;;;;10.63;8.93;;;16.80;99.90;;;;;;5132144;27;20445;-66
2022/10/02 07:42:34;;;;;;;10.57;8.83;;;16.80;99.90;;;;;;5127179;27;20476;-66
2022/10/02 07:45:27;;;;;;;12.67;8.90;;;16.70;99.90;;;;;;5137789;27;20440;-66
2022/10/02 07:48:25;;;;;;;10.13;8.53;;;16.70;99.90;;;;;;5133700;27;20540;-66
2022/10/02 07:54:48;;;;;;;9.83;7.80;;;16.50;99.90;;;;;;5106610;28;20468;-66
2022/10/02 07:57:31;;;;;;;9.27;7.90;;;16.50;99.90;;;;;;5115365;28;20456;-66
2022/10/02 08:00:06;;;;;;;10.07;8.00;;;16.50;99.90;;;;;;5117955;28;20537;-66
2022/10/02 08:02:40;;;;;;;9.13;7.60;;;16.50;99.90;;;;;;5127152;27;20452;-65
2022/10/02 08:05:19;;;;;;;9.20;8.20;;;16.40;99.90;;;;;;5119816;28;20535;-65
2022/10/02 08:07:56;;;;;;;10.10;8.50;;;16.40;99.90;;;;;;5129234;28;20516;-66
2022/10/02 08:10:32;;;;;;;9.17;8.20;;;16.40;99.90;;;;;;5129809;27;20485;-65
2022/10/02 08:13:11;;;;;;;9.13;7.40;;;16.40;99.90;;;;;;5136941;28;20517;-66
2022/10/02 08:15:45;;;;;;;9.37;8.17;;;16.40;99.90;;;;;;5123909;27;20507;-66
2022/10/02 08:18:20;;;;;;;10.60;7.77;;;16.40;99.90;;;;;;5140447;27;20480;-66
2022/10/02 08:21:06;;;;;;;11.10;7.90;;;16.30;99.90;;;;;;5135209;27;20452;-66
2022/10/02 08:23:43;;;;;;;9.00;8.03;;;16.30;99.90;;;;;;5142759;27;20434;-66
2022/10/02 08:26:20;;;;;;;9.00;8.10;;;16.30;99.90;;;;;;5124154;27;20523;-65
2022/10/02 08:29:00;;;;;;;10.03;8.03;;;16.20;99.90;;;;;;5135987;27;20469;-65
2022/10/02 08:31:31;;;;;;;11.27;9.00;;;16.20;99.90;;;;;;5139746;27;20468;-66
2022/10/02 08:34:12;;;;;;;10.67;8.67;;;16.20;99.90;;;;;;5134674;28;20494;-65
2022/10/02 08:37:12;;;;;;;10.80;8.33;;;16.20;99.90;;;;;;5130437;27;20436;-65
2022/10/02 08:40:29;;;;;;;8.77;7.30;;;16.20;99.90;;;;;;5130552;27;20457;-65
2022/10/02 08:43:32;;;;;;;10.23;7.77;;;16.20;99.90;;;;;;5137048;27;20465;-66
2022/10/02 08:46:41;;;;;;;11.70;8.10;;;16.10;99.90;;;;;;5124867;27;20460;-65
2022/10/02 08:49:39;;;;;;;10.53;8.97;;;16.00;99.90;;;;;;5118272;27;20514;-66
2022/10/02 08:52:39;;;;;;;11.00;8.20;;;16.10;99.90;;;;;;5128589;27;20517;-66
2022/10/02 08:55:46;;;;;;;10.80;9.37;;;16.10;99.90;;;;;;5137907;27;20464;-65
2022/10/02 08:58:54;;;;;;;10.87;8.63;;;16.10;99.90;;;;;;5128233;27;20475;-66
2022/10/02 09:01:55;;;;;;;12.80;9.07;;;16.00;99.90;;;;;;5131021;27;20443;-65
2022/10/02 09:05:19;;;;;;;10.70;8.03;;;15.80;99.90;;;;;;5124809;27;20480;-65
2022/10/02 09:08:26;;;;;;;10.50;8.23;;;15.90;99.90;;;;;;5138918;27;20463;-65
2022/10/02 09:11:36;;;;;;;11.60;8.63;;;15.80;99.90;;;;;;5123019;27;20436;-65
2022/10/02 09:14:37;;;;;;;11.07;9.10;;;15.80;99.90;;;;;;5109792;27;20449;-65
2022/10/02 09:17:36;;;;;;;10.57;8.70;;;15.80;99.90;;;;;;5098894;27;20901;-65
2022/10/02 09:20:39;;;;;;;12.90;9.23;;;15.80;99.90;;;;;;5119285;27;20461;-65
2022/10/02 09:23:58;;;;;;;8.70;7.10;;;15.70;99.90;;;;;;5124287;27;20443;-65
2022/10/02 09:26:42;;;;;;;9.57;8.30;;;15.60;99.90;;;;;;5138029;27;20484;-66
2022/10/02 09:29:50;;;;;;;11.90;9.20;;;15.60;99.90;;;;;;5141202;27;20525;-65
2022/10/02 09:32:51;;;;;;;9.63;8.60;;;15.60;99.90;;;;;;5120789;27;20495;-66
2022/10/02 09:35:49;;;;;;;14.67;8.27;;;15.60;99.90;;;;;;5117545;27;20893;-66
2022/10/02 09:39:00;;;;;;;9.70;8.57;;;15.50;99.90;;;;;;5112433;27;20465;-65
2022/10/02 09:42:24;;;;;;;11.17;8.93;;;15.50;99.90;;;;;;5127488;27;20453;-65
2022/10/02 09:45:31;;;;;;;12.27;8.10;;;15.50;99.90;;;;;;5134114;27;20491;-66
2022/10/02 09:48:52;;;;;;;9.93;7.60;;;15.50;99.90;;;;;;5141519;27;20529;-65
2022/10/02 09:52:04;;;;;;;10.67;8.30;;;15.50;99.90;;;;;;5117137;27;20477;-65
2022/10/02 09:55:35;;;;;;;11.73;8.43;;;15.50;99.90;;;;;;5103171;27;20461;-65
2022/10/02 09:58:39;;;;;;;10.70;8.50;;;15.50;99.90;;;;;;5128625;27;20441;-66
2022/10/02 10:01:45;;;;;;;12.13;9.13;;;15.50;99.90;;;;;;5109309;27;21239;-66
2022/10/02 10:04:48;;;;;;;10.17;8.53;;;15.50;99.90;;;;;;5129241;27;20513;-65
2022/10/02 10:08:06;;;;;;;11.37;8.93;;;15.60;99.90;;;;;;5127623;27;20524;-66
2022/10/02 10:11:12;;;;;;;9.90;8.80;;;15.60;99.90;;;;;;5117940;27;20465;-66
2022/10/02 10:14:18;;;;;;;11.10;9.20;;;15.60;99.90;;;;;;5084514;27;20502;-66
2022/10/02 10:17:37;;;;;;;16.37;9.63;;;15.60;99.90;;;;;;5126709;27;20453;-66
2022/10/02 10:20:36;;;;;;;13.50;10.17;;;15.60;99.90;;;;;;5035832;28;20467;-66
2022/10/02 10:23:34;;;;;;;11.30;10.00;;;15.60;99.90;;;;;;5079925;28;20455;-66
2022/10/02 10:26:42;;;;;;;11.30;9.63;;;15.80;99.90;;;;;;5080448;28;20438;-66
2022/10/02 10:29:42;;;;;;;9.87;8.77;;;15.70;99.90;;;;;;5076407;28;20527;-66
2022/10/02 10:32:53;;;;;;;11.63;9.97;;;15.80;99.90;;;;;;5072386;28;20456;-65
2022/10/02 10:35:44;;;;;;;10.37;9.00;;;15.80;99.90;;;;;;5069674;28;21051;-66
2022/10/02 10:38:51;;;;;;;11.47;9.50;;;15.90;99.90;;;;;;5078741;28;20481;-65
2022/10/02 10:41:58;;;;;;;10.30;8.97;;;15.80;99.90;;;;;;5063975;28;20571;-66
2022/10/02 10:44:58;;;;;;;9.67;8.50;;;15.70;99.90;;;;;;5064304;28;20467;-65
2022/10/02 10:48:07;;;;;;;11.43;9.33;;;15.60;99.90;;;;;;5074274;28;20571;-66
2022/10/02 10:50:51;;;;;;;9.90;8.60;;;15.60;99.90;;;;;;5059957;28;20900;-65
2022/10/02 10:53:46;;;;;;;10.97;8.83;;;15.50;99.90;;;;;;5073083;28;20554;-66
2022/10/02 10:56:32;;;;;;;15.00;10.70;;;15.50;99.90;;;;;;5093704;27;20458;-66
2022/10/02 10:59:26;;;;;;;11.53;8.80;;;15.50;99.90;;;;;;5121037;27;20479;-65
2022/10/02 11:02:17;;;;;;;9.87;8.17;;;15.40;99.90;;;;;;5133389;27;20452;-66
2022/10/02 11:05:15;;;;;;;11.50;9.30;;;15.50;99.90;;;;;;5128890;27;20481;-66
2022/10/02 11:08:10;;;;;;;8.93;8.00;;;15.40;99.90;;;;;;5120001;27;20492;-65
2022/10/02 11:10:51;;;;;;;11.67;9.57;;;15.30;99.90;;;;;;5141569;27;20461;-66
2022/10/02 11:13:40;;;;;;;9.93;8.67;;;15.30;99.90;;;;;;5142290;27;20488;-66
2022/10/02 11:16:34;;;;;;;11.77;9.33;;;15.30;99.90;;;;;;5121167;27;20507;-66
2022/10/02 11:19:36;;;;;;;10.57;9.47;;;15.30;99.90;;;;;;5109150;27;20461;-66
2022/10/02 11:22:32;;;;;;;12.07;9.53;;;15.30;99.90;;;;;;5123382;27;20464;-65
2022/10/02 11:25:24;;;;;;;13.60;10.37;;;15.30;99.90;;;;;;5122460;27;20470;-66
2022/10/02 11:28:25;;;;;;;12.37;10.30;;;15.30;99.90;;;;;;5130554;27;20513;-65
2022/10/02 11:31:07;;;;;;;13.97;10.00;;;15.30;99.90;;;;;;5122726;27;20560;-65
2022/10/02 11:34:02;;;;;;;12.50;9.57;;;15.30;99.90;;;;;;5108070;28;20465;-65
2022/10/02 11:36:46;;;;;;;12.43;10.50;;;15.20;99.90;;;;;;5126706;27;20463;-65
2022/10/02 11:39:48;;;;;;;11.50;8.70;;;15.20;99.90;;;;;;5121548;28;20461;-66
2022/10/02 11:42:57;;;;;;;10.40;8.70;;;15.20;99.90;;;;;;5077437;28;20506;-65
2022/10/02 11:45:54;;;;;;;16.77;10.30;;;15.20;99.90;;;;;;5024808;28;20585;-66
2022/10/02 11:48:52;;;;;;;12.20;9.00;;;15.10;99.90;;;;;;5032936;28;20512;-66
2022/10/02 11:51:47;;;;;;;15.37;10.93;;;15.20;99.90;;;;;;5023904;28;20461;-66
2022/10/02 11:54:43;;;;;;;12.27;10.20;;;15.10;99.90;;;;;;5028339;28;20449;-66
2022/10/02 11:57:33;;;;;;;11.90;9.67;;;15.00;99.90;;;;;;5040434;28;20453;-66
2022/10/02 12:00:14;;;;;;;13.30;9.97;;;15.00;99.90;;;;;;5039392;28;20479;-66
2022/10/02 12:02:53;;;;;;;11.50;10.00;;;15.00;99.90;;;;;;5036391;28;20445;-66
2022/10/02 12:05:38;;;;;;;12.00;9.90;;;14.90;99.90;;;;;;5031805;28;20547;-66
2022/10/02 12:08:17;;;;;;;12.37;9.30;;;14.80;99.90;;;;;;5020024;28;20568;-65
2022/10/02 12:10:58;;;;;;;12.53;9.33;;;14.80;99.90;;;;;;5029169;28;20452;-66
2022/10/02 12:14:01;;;;;;;12.60;9.90;;;14.70;99.90;;;;;;5036794;28;20461;-65
2022/10/02 12:16:50;;;;;;;13.83;10.17;;;14.70;99.90;;;;;;5016054;28;20473;-66
2022/10/02 12:19:38;;;;;;;14.90;10.57;;;14.80;99.90;;;;;;5100071;27;20445;-66
2022/10/02 12:28:24;;;;;;;15.40;10.20;;;14.70;99.90;;;;;;5070168;28;21028;-66
2022/10/02 12:31:05;;;;;;;14.70;11.23;;;14.70;99.90;;;;;;5085247;28;20502;-66
2022/10/02 12:33:46;;;;;;;10.90;9.47;;;14.70;99.90;;;;;;5072755;28;20670;-65
2022/10/02 12:36:36;;;;;;;14.17;10.30;;;14.70;99.90;;;;;;5083101;28;20464;-66
2022/10/02 12:39:21;;;;;;;16.07;10.47;;;14.70;99.90;;;;;;5069619;28;20459;-66
2022/10/02 12:42:25;;;;;;;13.17;10.53;;;14.60;99.90;;;;;;5079979;28;20494;-66
2022/10/02 12:45:18;;;;;;;14.00;11.63;;;14.60;99.90;;;;;;5065091;28;20464;-65
2022/10/02 12:48:18;;;;;;;14.40;10.80;;;14.60;99.90;;;;;;5074235;28;20458;-66
2022/10/02 12:51:15;;;;;;;11.23;9.70;;;14.60;99.90;;;;;;5072182;28;20446;-65
2022/10/02 12:54:25;;;;;;;11.63;10.30;;;14.50;99.90;;;;;;5070522;28;20473;-65
2022/10/02 13:00:15;;;;;;;12.10;9.60;;;14.50;99.90;;;;;;5135798;27;20492;-66
2022/10/02 13:03:21;;;;;;;16.20;11.13;;;14.40;99.90;;;;;;5121000;27;20456;-65
2022/10/02 13:06:28;;;;;;;14.10;10.77;;;14.40;99.90;;;;;;5116510;27;20501;-65
2022/10/02 13:09:13;;;;;;;15.43;11.77;;;14.40;99.90;;;;;;5121905;27;20544;-65
2022/10/02 13:11:56;;;;;;;19.73;12.90;;;14.40;99.90;;;;;;5131158;27;20461;-65
2022/10/02 13:14:54;;;;;;;16.50;12.10;;;14.40;99.90;;;;;;5123517;27;20467;-66
2022/10/02 13:17:36;;;;;;;13.80;10.40;;;14.40;99.90;;;;;;5128514;27;20470;-65
2022/10/02 13:20:20;;;;;;;15.03;11.00;;;14.40;99.90;;;;;;5117979;27;20520;-66
2022/10/02 13:23:04;;;;;;;13.60;10.70;;;14.40;99.90;;;;;;5111917;27;20457;-66
2022/10/02 13:25:53;;;;;;;14.20;11.00;;;14.30;99.90;;;;;;5141081;27;20476;-66
2022/10/02 13:28:55;;;;;;;13.27;10.63;;;14.30;99.90;;;;;;5110789;27;20512;-65
2022/10/02 13:31:42;;;;;;;15.07;11.30;;;14.20;99.90;;;;;;5124311;27;20501;-65
2022/10/02 13:34:30;;;;;;;13.23;11.43;;;14.30;99.90;;;;;;5138376;27;20457;-66
2022/10/02 13:37:20;;;;;;;15.43;11.83;;;14.30;99.90;;;;;;5136506;27;20463;-65
2022/10/02 13:40:19;;;;;;;17.90;12.77;;;14.30;99.90;;;;;;5119106;27;20461;-65
2022/10/02 13:43:13;;;;;;;15.40;11.50;;;14.20;99.90;;;;;;5127163;27;20457;-65
2022/10/02 13:45:50;;;;;;;12.80;11.10;;;14.20;99.90;;;;;;5143919;27;20460;-65
2022/10/02 13:48:28;;;;;;;13.73;11.30;;;14.20;99.90;;;;;;5129045;27;20496;-65
2022/10/02 13:51:05;;;;;;;13.50;11.00;;;14.20;99.90;;;;;;5139401;27;20469;-65
2022/10/02 13:54:13;;;;;;;16.13;11.60;;;14.20;99.90;;;;;;5121426;27;20467;-65
2022/10/02 13:56:53;;;;;;;16.00;11.37;;;14.20;99.90;;;;;;5082720;28;20907;-65
2022/10/02 13:59:47;;;;;;;14.00;11.20;;;14.10;99.90;;;;;;5082345;28;20451;-65
2022/10/02 14:02:37;;;;;;;13.50;11.87;;;14.20;99.90;;;;;;5081276;28;20940;-66
2022/10/02 14:05:17;;;;;;;18.40;11.73;;;14.20;99.90;;;;;;5071753;28;20509;-65
2022/10/02 14:08:12;;;;;;;15.43;11.63;;;14.20;99.90;;;;;;5082301;28;20510;-65
2022/10/02 14:10:53;;;;;;;13.67;10.50;;;14.20;99.90;;;;;;5073459;28;20970;-65
2022/10/02 14:13:50;;;;;;;12.70;10.53;;;14.20;99.90;;;;;;5083776;28;20510;-65
2022/10/02 14:16:35;;;;;;;15.77;12.00;;;14.20;99.90;;;;;;5075403;28;20467;-66
2022/10/02 14:19:29;;;;;;;16.10;11.73;;;14.20;99.90;;;;;;5095595;28;20591;-65
2022/10/02 14:22:15;;;;;;;14.47;10.90;;;14.20;99.90;;;;;;5080565;28;20501;-66
2022/10/02 14:25:02;;;;;;;13.17;10.90;;;14.20;99.90;;;;;;5067405;28;20491;-65
2022/10/02 14:28:00;;;;;;;12.97;10.97;;;14.20;99.90;;;;;;5082107;28;20460;-67
2022/10/02 14:30:45;;;;;;;14.10;10.57;;;14.30;99.90;;;;;;5096047;28;20499;-66
2022/10/02 14:33:25;;;;;;;16.63;12.73;;;14.20;99.90;;;;;;5128655;27;20436;-66